Time;durP1;ratioP1;P1;durP2;ratioP2;P2;SDS_P1;SDS_P2;PMS_P1;PMS_P2;Temp;Humidity;BMP_temperature;BMP_pressure;BME280_temperature;BME280_humidity;BME280_pressure;Samples;Min_cycle;Max_cycle;Signal;HPM_P1;HPM_P2
2022/04/25 00:02:08;;;;;;;0.77;0.77;;;;;;;;;;4711789;30;20060;-78
2022/04/25 00:04:36;;;;;;;0.60;0.60;;;;;;;;;;4712344;30;20134;-79
2022/04/25 00:07:04;;;;;;;0.80;0.80;;;;;;;;;;4695680;30;20064;-80
2022/04/25 00:09:32;;;;;;;0.85;0.85;;;;;;;;;;4681695;30;20057;-78
2022/04/25 00:12:02;;;;;;;1.35;0.80;;;;;;;;;;4712624;30;20061;-79
2022/04/25 00:14:30;;;;;;;1.10;1.00;;;;;;;;;;4695922;30;20068;-78
2022/04/25 00:16:59;;;;;;;0.70;0.70;;;;;;;;;;4711833;30;20061;-78
2022/04/25 00:19:27;;;;;;;0.80;0.80;;;;;;;;;;4695919;30;20049;-79
2022/04/25 00:21:55;;;;;;;0.75;0.75;;;;;;;;;;4695461;30;20059;-79
2022/04/25 00:24:23;;;;;;;0.80;0.80;;;;;;;;;;4712281;30;20053;-81
2022/04/25 00:26:51;;;;;;;0.70;0.70;;;;;;;;;;4696168;30;20053;-79
2022/04/25 00:29:19;;;;;;;0.50;0.50;;;;;;;;;;4695111;30;20064;-79
2022/04/25 00:31:47;;;;;;;0.65;0.65;;;;;;;;;;4696292;30;20068;-79
2022/04/25 00:34:29;;;;;;;0.65;0.65;;;;;;;;;;4692917;30;20420;-79
2022/04/25 00:37:21;;;;;;;0.60;0.60;;;;;;;;;;4689174;30;20062;-78
2022/04/25 00:39:51;;;;;;;0.60;0.60;;;;;;;;;;4692878;30;20061;-79
2022/04/25 00:42:24;;;;;;;0.70;0.70;;;;;;;;;;4694200;30;20061;-79
2022/04/25 00:44:52;;;;;;;3.80;0.60;;;;;;;;;;4694712;30;20057;-79
2022/04/25 00:47:21;;;;;;;0.60;0.60;;;;;;;;;;4693878;30;20576;-79
2022/04/25 00:49:49;;;;;;;0.50;0.50;;;;;;;;;;4693898;30;20531;-79
2022/04/25 00:52:17;;;;;;;0.63;0.63;;;;;;;;;;4693803;30;20066;-78
2022/04/25 00:54:45;;;;;;;0.52;0.52;;;;;;;;;;4693722;30;20493;-80
2022/04/25 00:57:13;;;;;;;0.70;0.70;;;;;;;;;;4694395;30;20053;-79
2022/04/25 00:59:41;;;;;;;0.68;0.68;;;;;;;;;;4694663;30;20496;-79
2022/04/25 01:02:09;;;;;;;0.55;0.55;;;;;;;;;;4711238;30;20053;-78
2022/04/25 01:04:37;;;;;;;0.60;0.60;;;;;;;;;;4711375;30;20083;-79
2022/04/25 01:07:05;;;;;;;0.50;0.50;;;;;;;;;;4710564;30;20063;-79
2022/04/25 01:09:34;;;;;;;0.70;0.70;;;;;;;;;;4709466;30;20068;-79
2022/04/25 01:12:02;;;;;;;0.60;0.60;;;;;;;;;;4681284;30;20072;-79
2022/04/25 01:14:30;;;;;;;0.57;0.57;;;;;;;;;;4711289;30;20060;-79
2022/04/25 01:17:00;;;;;;;0.70;0.70;;;;;;;;;;4711562;30;20053;-78
2022/04/25 01:19:28;;;;;;;1.25;0.70;;;;;;;;;;4710761;30;20076;-79
2022/04/25 01:30:30;;;;;;;0.70;0.70;;;;;;;;;;4642031;30;20518;-88
2022/04/25 01:34:09;;;;;;;0.70;0.70;;;;;;;;;;4588359;30;20047;-88
2022/04/25 01:37:47;;;;;;;0.70;0.70;;;;;;;;;;4622363;30;20047;-79
2022/04/25 01:40:15;;;;;;;0.60;0.60;;;;;;;;;;4632741;30;20155;-80
2022/04/25 01:42:45;;;;;;;0.70;0.70;;;;;;;;;;4639349;30;20055;-79
2022/04/25 01:45:17;;;;;;;0.60;0.60;;;;;;;;;;4625077;30;20063;-79
2022/04/25 01:47:46;;;;;;;0.80;0.80;;;;;;;;;;4642776;30;20062;-79
2022/04/25 01:50:14;;;;;;;0.70;0.70;;;;;;;;;;4625334;30;20055;-79
2022/04/25 01:52:46;;;;;;;0.60;0.60;;;;;;;;;;4639256;30;20063;-80
2022/04/25 01:55:14;;;;;;;0.60;0.60;;;;;;;;;;4639126;30;20058;-79
2022/04/25 01:57:42;;;;;;;0.65;0.65;;;;;;;;;;4639060;30;20055;-78
2022/04/25 02:00:11;;;;;;;0.75;0.75;;;;;;;;;;4632420;30;20060;-79
2022/04/25 02:02:39;;;;;;;0.63;0.63;;;;;;;;;;4673443;30;20060;-79
2022/04/25 02:05:07;;;;;;;0.70;0.70;;;;;;;;;;4726472;30;20068;-78
2022/04/25 02:07:35;;;;;;;0.60;0.60;;;;;;;;;;4697086;30;20057;-79
2022/04/25 02:10:04;;;;;;;0.60;0.60;;;;;;;;;;4728187;30;20059;-78
2022/04/25 02:12:32;;;;;;;0.73;0.73;;;;;;;;;;4698140;30;20492;-79
2022/04/25 02:15:00;;;;;;;0.50;0.50;;;;;;;;;;4691525;30;20560;-78
2022/04/25 02:17:29;;;;;;;0.70;0.70;;;;;;;;;;4679920;30;20068;-80
2022/04/25 02:19:59;;;;;;;0.50;0.50;;;;;;;;;;4695227;30;20503;-79
2022/04/25 02:22:27;;;;;;;0.50;0.50;;;;;;;;;;4697400;30;20049;-79
2022/04/25 02:24:55;;;;;;;0.57;0.57;;;;;;;;;;4713801;30;20424;-79
2022/04/25 02:27:23;;;;;;;0.68;0.68;;;;;;;;;;4713808;30;20068;-79
2022/04/25 02:29:56;;;;;;;0.70;0.70;;;;;;;;;;4698119;30;20049;-79
2022/04/25 02:32:24;;;;;;;0.60;0.60;;;;;;;;;;4694998;30;20065;-79
2022/04/25 02:34:53;;;;;;;0.60;0.60;;;;;;;;;;4707142;30;20076;-79
2022/04/25 02:37:22;;;;;;;0.75;0.75;;;;;;;;;;4711665;30;20060;-79
2022/04/25 02:39:50;;;;;;;0.55;0.55;;;;;;;;;;4694493;30;20057;-79
2022/04/25 02:42:18;;;;;;;0.75;0.75;;;;;;;;;;4705735;30;20497;-79
2022/04/25 02:44:48;;;;;;;0.55;0.55;;;;;;;;;;4712542;30;20074;-80
2022/04/25 02:47:16;;;;;;;0.50;0.50;;;;;;;;;;4712031;30;20432;-79
2022/04/25 02:50:03;;;;;;;0.60;0.60;;;;;;;;;;4697072;30;20100;-79
2022/04/25 02:53:28;;;;;;;0.55;0.55;;;;;;;;;;4697149;30;20590;-79
2022/04/25 02:56:46;;;;;;;0.70;0.70;;;;;;;;;;4676571;30;20057;-79
2022/04/25 03:00:13;;;;;;;0.60;0.60;;;;;;;;;;4710555;30;20049;-80
2022/04/25 03:03:35;;;;;;;0.50;0.50;;;;;;;;;;4712294;30;20056;-79
2022/04/25 03:06:35;;;;;;;0.50;0.50;;;;;;;;;;4699054;30;20057;-79
2022/04/25 03:09:58;;;;;;;0.50;0.50;;;;;;;;;;4719872;30;20503;-79
2022/04/25 03:12:42;;;;;;;1.95;0.70;;;;;;;;;;4714204;30;20053;-80
2022/04/25 03:16:07;;;;;;;3.15;2.95;;;;;;;;;;4663408;30;20381;-79
2022/04/25 03:19:11;;;;;;;0.65;0.65;;;;;;;;;;4697260;30;20516;-79
2022/04/25 03:22:03;;;;;;;0.70;0.70;;;;;;;;;;4712336;30;20071;-79
2022/04/25 03:25:01;;;;;;;0.63;0.63;;;;;;;;;;4701180;30;20061;-79
2022/04/25 03:27:29;;;;;;;0.60;0.60;;;;;;;;;;4712533;30;20061;-79
2022/04/25 03:29:57;;;;;;;0.50;0.50;;;;;;;;;;4712669;30;20060;-79
2022/04/25 03:32:27;;;;;;;0.75;0.75;;;;;;;;;;4711857;30;20056;-81
2022/04/25 03:34:59;;;;;;;0.60;0.60;;;;;;;;;;4712332;30;20064;-79
2022/04/25 03:37:28;;;;;;;0.80;0.80;;;;;;;;;;4710548;30;20064;-79
2022/04/25 03:39:56;;;;;;;0.60;0.60;;;;;;;;;;4696815;30;20067;-78
2022/04/25 03:42:24;;;;;;;5.07;0.80;;;;;;;;;;4682244;30;20045;-79
2022/04/25 03:44:52;;;;;;;0.70;0.70;;;;;;;;;;4712675;30;20503;-78
2022/04/25 03:47:20;;;;;;;0.70;0.70;;;;;;;;;;4711870;30;20057;-78
2022/04/25 03:49:48;;;;;;;0.57;0.57;;;;;;;;;;4711795;30;20053;-79
2022/04/25 03:52:16;;;;;;;0.60;0.60;;;;;;;;;;4712250;30;20061;-79
2022/04/25 03:57:30;;;;;;;0.50;0.50;;;;;;;;;;4711696;30;20093;-79
2022/04/25 03:59:58;;;;;;;1.05;0.85;;;;;;;;;;4712667;30;20057;-79
2022/04/25 04:02:26;;;;;;;0.90;0.90;;;;;;;;;;4711843;30;20056;-79
2022/04/25 04:04:56;;;;;;;1.10;1.00;;;;;;;;;;4696227;30;20069;-78
2022/04/25 04:07:24;;;;;;;0.65;0.65;;;;;;;;;;4695444;30;20446;-78
2022/04/25 04:09:52;;;;;;;0.50;0.50;;;;;;;;;;4696074;30;20049;-79
2022/04/25 04:12:20;;;;;;;0.57;0.57;;;;;;;;;;4696491;30;20062;-78
2022/04/25 04:14:48;;;;;;;0.80;0.80;;;;;;;;;;4696256;30;20065;-79
2022/04/25 04:17:17;;;;;;;0.80;0.80;;;;;;;;;;4695870;30;20053;-79
2022/04/25 04:19:46;;;;;;;0.88;0.88;;;;;;;;;;4711808;30;20412;-79
2022/04/25 04:22:15;;;;;;;0.90;0.90;;;;;;;;;;4695640;30;20053;-79
2022/04/25 04:24:43;;;;;;;0.55;0.55;;;;;;;;;;4712008;30;20072;-79
2022/04/25 04:27:14;;;;;;;0.60;0.60;;;;;;;;;;4658641;30;20057;-79
2022/04/25 04:29:42;;;;;;;0.60;0.60;;;;;;;;;;4702144;30;20056;-79
2022/04/25 04:32:12;;;;;;;0.65;0.65;;;;;;;;;;4689507;30;20579;-79
2022/04/25 04:34:40;;;;;;;0.93;0.93;;;;;;;;;;4674199;30;20064;-79
2022/04/25 04:37:08;;;;;;;0.80;0.60;;;;;;;;;;4690387;30;20487;-79
2022/04/25 04:39:36;;;;;;;1.02;0.93;;;;;;;;;;4695309;30;20500;-79
2022/04/25 04:42:05;;;;;;;1.40;1.30;;;;;;;;;;4711072;30;20041;-79
2022/04/25 04:44:33;;;;;;;0.80;0.80;;;;;;;;;;4695760;30;20748;-79
2022/04/25 04:47:02;;;;;;;1.63;1.52;;;;;;;;;;4694898;30;20056;-78
2022/04/25 04:49:30;;;;;;;0.80;0.80;;;;;;;;;;4707112;30;20783;-79
2022/04/25 04:52:01;;;;;;;0.73;0.73;;;;;;;;;;4701199;30;20722;-79
2022/04/25 04:54:29;;;;;;;1.20;0.70;;;;;;;;;;4696985;30;20052;-79
2022/04/25 04:56:57;;;;;;;0.57;0.57;;;;;;;;;;4721393;30;20057;-78
2022/04/25 04:59:25;;;;;;;0.85;0.85;;;;;;;;;;4710794;30;20060;-78
2022/04/25 05:01:54;;;;;;;0.90;0.90;;;;;;;;;;4687335;30;20135;-80
2022/04/25 05:04:22;;;;;;;1.75;1.65;;;;;;;;;;4703143;30;20493;-79
2022/04/25 05:06:52;;;;;;;1.38;1.30;;;;;;;;;;4682477;30;20068;-78
2022/04/25 05:09:24;;;;;;;2.50;1.85;;;;;;;;;;4704759;30;20420;-79
2022/04/25 05:11:53;;;;;;;1.45;1.27;;;;;;;;;;4700846;30;20061;-79
2022/04/25 05:14:21;;;;;;;1.40;1.30;;;;;;;;;;4692568;30;20049;-79
2022/04/25 05:16:49;;;;;;;2.25;1.23;;;;;;;;;;4701284;30;20419;-78
2022/04/25 05:19:17;;;;;;;1.67;1.55;;;;;;;;;;4678830;30;20432;-78
2022/04/25 05:21:45;;;;;;;2.08;1.42;;;;;;;;;;4688781;30;20626;-80
2022/04/25 05:24:13;;;;;;;2.45;2.28;;;;;;;;;;4703556;30;20068;-81
2022/04/25 05:26:42;;;;;;;1.92;1.83;;;;;;;;;;4693083;30;20057;-80
2022/04/25 05:29:14;;;;;;;1.83;1.40;;;;;;;;;;4668309;30;20498;-81
2022/04/25 05:31:42;;;;;;;2.88;2.58;;;;;;;;;;4698818;30;20433;-81
2022/04/25 05:34:14;;;;;;;3.40;1.75;;;;;;;;;;4669419;30;20060;-80
2022/04/25 05:36:42;;;;;;;4.20;2.75;;;;;;;;;;4693598;30;20052;-79
2022/04/25 05:39:10;;;;;;;2.50;2.30;;;;;;;;;;4695048;30;20056;-81
2022/04/25 05:41:40;;;;;;;2.83;2.03;;;;;;;;;;4687695;30;20056;-78
2022/04/25 05:44:10;;;;;;;2.17;1.77;;;;;;;;;;4674992;30;20416;-83
2022/04/25 05:46:38;;;;;;;2.75;1.80;;;;;;;;;;4694015;30;20057;-84
2022/04/25 05:51:59;;;;;;;2.40;2.20;;;;;;;;;;4685047;30;20057;-83
2022/04/25 05:54:29;;;;;;;3.25;2.45;;;;;;;;;;4700531;30;20053;-84
2022/04/25 05:57:02;;;;;;;3.70;2.58;;;;;;;;;;4712499;30;20048;-86
2022/04/25 05:59:30;;;;;;;2.70;1.60;;;;;;;;;;4713609;30;20060;-84
2022/04/25 06:01:59;;;;;;;2.25;1.90;;;;;;;;;;4687853;30;20056;-88
2022/04/25 06:04:27;;;;;;;2.42;1.67;;;;;;;;;;4716879;30;20427;-85
2022/04/25 06:06:57;;;;;;;6.85;3.28;;;;;;;;;;4701202;30;20853;-85
2022/04/25 06:09:26;;;;;;;4.93;3.38;;;;;;;;;;4716197;30;20059;-86
2022/04/25 06:11:54;;;;;;;4.65;3.38;;;;;;;;;;4688289;30;20063;-87
2022/04/25 06:14:22;;;;;;;4.30;3.00;;;;;;;;;;4687730;30;20052;-86
2022/04/25 06:16:50;;;;;;;4.35;3.05;;;;;;;;;;4702062;30;20068;-86
2022/04/25 06:19:18;;;;;;;2.97;2.78;;;;;;;;;;4715674;30;20057;-85
2022/04/25 06:21:46;;;;;;;5.30;3.92;;;;;;;;;;4672915;30;20057;-86
2022/04/25 06:24:14;;;;;;;3.90;3.35;;;;;;;;;;4707903;30;20053;-86
2022/04/25 06:26:43;;;;;;;5.65;3.58;;;;;;;;;;4669449;30;20053;-85
2022/04/25 06:29:13;;;;;;;3.45;2.33;;;;;;;;;;4672486;30;20057;-86
2022/04/25 06:31:42;;;;;;;7.50;3.55;;;;;;;;;;4695210;30;20473;-87
2022/04/25 06:34:10;;;;;;;6.70;2.92;;;;;;;;;;4674076;30;20497;-83
2022/04/25 06:36:38;;;;;;;4.35;3.15;;;;;;;;;;4702249;30;20061;-85
2022/04/25 06:39:16;;;;;;;;;;;;;;;;;;;;;
2022/04/25 06:42:05;;;;;;;3.35;3.00;;;;;;;;;;4711527;30;20067;-85
2022/04/25 06:44:34;;;;;;;3.85;3.40;;;;;;;;;;4669727;30;20068;-84
2022/04/25 06:47:03;;;;;;;4.80;4.07;;;;;;;;;;4704980;30;20056;-83
2022/04/25 06:49:31;;;;;;;5.22;4.60;;;;;;;;;;4730751;30;20060;-86
2022/04/25 06:52:01;;;;;;;6.47;5.78;;;;;;;;;;4695111;30;20057;-85
2022/04/25 06:54:31;;;;;;;6.15;5.05;;;;;;;;;;4681011;30;20054;-84
2022/04/25 06:56:59;;;;;;;7.70;6.07;;;;;;;;;;4667236;30;20061;-88
2022/04/25 06:59:27;;;;;;;7.75;5.07;;;;;;;;;;4679512;30;20069;-78
2022/04/25 07:01:55;;;;;;;7.45;5.70;;;;;;;;;;4712586;30;20057;-78
2022/04/25 07:04:24;;;;;;;8.05;7.10;;;;;;;;;;4697694;30;20066;-76
2022/04/25 07:06:52;;;;;;;9.63;7.07;;;;;;;;;;4711783;30;20049;-75
2022/04/25 07:09:20;;;;;;;10.95;7.22;;;;;;;;;;4712432;30;20064;-79
2022/04/25 07:11:48;;;;;;;13.05;9.75;;;;;;;;;;4683204;30;20604;-77
2022/04/25 07:14:17;;;;;;;9.05;6.35;;;;;;;;;;4712909;30;20815;-76
2022/04/25 07:16:51;;;;;;;8.98;8.05;;;;;;;;;;4695918;30;20386;-78
2022/04/25 07:19:22;;;;;;;10.95;7.97;;;;;;;;;;4700225;30;20061;-76
2022/04/25 07:30:11;;;;;;;12.73;8.02;;;;;;;;;;4707345;30;20045;-76
2022/04/25 07:32:40;;;;;;;11.88;8.38;;;;;;;;;;4679976;30;20057;-77
2022/04/25 07:35:09;;;;;;;12.10;7.80;;;;;;;;;;4693112;30;20056;-78
2022/04/25 07:37:37;;;;;;;12.82;9.45;;;;;;;;;;4711744;30;20072;-77
2022/04/25 07:40:08;;;;;;;10.55;8.35;;;;;;;;;;4712905;30;20068;-79
2022/04/25 07:42:38;;;;;;;11.43;8.63;;;;;;;;;;4710972;30;20056;-77
2022/04/25 07:45:07;;;;;;;10.93;8.20;;;;;;;;;;4713084;30;20509;-78
2022/04/25 07:47:36;;;;;;;11.25;7.60;;;;;;;;;;4711921;30;20068;-78
2022/04/25 07:50:04;;;;;;;7.93;7.13;;;;;;;;;;4712252;30;20049;-78
2022/04/25 07:52:32;;;;;;;12.88;8.00;;;;;;;;;;4696296;30;20501;-79
2022/04/25 07:55:05;;;;;;;9.23;7.88;;;;;;;;;;4698352;30;20086;-78
2022/04/25 07:57:36;;;;;;;15.98;10.15;;;;;;;;;;4696497;30;20069;-77
2022/04/25 08:00:05;;;;;;;12.15;8.55;;;;;;;;;;4682958;30;20068;-76
2022/04/25 08:02:36;;;;;;;11.88;8.55;;;;;;;;;;4710064;30;20095;-79
2022/04/25 08:05:05;;;;;;;11.18;7.90;;;;;;;;;;4710889;30;20076;-79
2022/04/25 08:07:32;;;;;;;8.85;7.93;;;;;;;;;;4695165;30;20057;-79
2022/04/25 08:10:01;;;;;;;11.00;7.85;;;;;;;;;;4710179;30;20052;-79
2022/04/25 08:18:04;;;;;;;14.02;9.15;;;;;;;;;;4703708;30;20041;-82
2022/04/25 08:20:36;;;;;;;14.32;9.30;;;;;;;;;;4696859;30;20104;-81
2022/04/25 08:23:09;;;;;;;10.50;9.02;;;;;;;;;;4708969;30;20061;-84
2022/04/25 08:25:39;;;;;;;12.57;9.70;;;;;;;;;;4704208;30;20046;-81
2022/04/25 08:28:07;;;;;;;11.90;9.63;;;;;;;;;;4711448;30;20512;-83
2022/04/25 08:30:36;;;;;;;13.10;9.02;;;;;;;;;;4712476;30;20053;-84
2022/04/25 08:33:08;;;;;;;21.15;11.63;;;;;;;;;;4681606;30;20057;-87
2022/04/25 08:35:36;;;;;;;12.40;8.63;;;;;;;;;;4681000;30;20076;-81
2022/04/25 08:38:04;;;;;;;14.00;9.23;;;;;;;;;;4674107;30;20053;-83
2022/04/25 08:40:33;;;;;;;12.40;9.40;;;;;;;;;;4696665;30;20057;-83
2022/04/25 08:43:03;;;;;;;14.43;9.32;;;;;;;;;;4710704;30;20064;-85
2022/04/25 08:45:33;;;;;;;17.65;8.80;;;;;;;;;;4696692;30;20061;-83
2022/04/25 08:48:03;;;;;;;11.75;9.10;;;;;;;;;;4725756;30;20076;-82
2022/04/25 08:50:32;;;;;;;38.38;9.88;;;;;;;;;;4711894;30;20072;-80
2022/04/25 08:53:01;;;;;;;18.17;9.65;;;;;;;;;;4723352;30;20052;-81
2022/04/25 08:55:30;;;;;;;10.38;7.88;;;;;;;;;;4711248;30;20064;-81
2022/04/25 08:58:00;;;;;;;12.52;9.52;;;;;;;;;;4713059;30;20045;-82
2022/04/25 09:00:28;;;;;;;18.65;9.57;;;;;;;;;;4711821;30;20064;-81
2022/04/25 09:02:57;;;;;;;11.23;9.25;;;;;;;;;;4711242;30;20049;-81
2022/04/25 09:05:26;;;;;;;13.23;9.05;;;;;;;;;;4695195;30;20064;-82
2022/04/25 09:07:58;;;;;;;14.73;9.70;;;;;;;;;;4710263;30;20065;-83
2022/04/25 09:10:28;;;;;;;9.70;8.02;;;;;;;;;;4710255;30;20045;-80
2022/04/25 09:12:58;;;;;;;11.43;8.57;;;;;;;;;;4709217;30;20060;-82
2022/04/25 09:15:28;;;;;;;10.45;7.85;;;;;;;;;;4712568;30;20049;-80
2022/04/25 09:18:01;;;;;;;13.45;8.77;;;;;;;;;;4698205;30;20509;-81
2022/04/25 09:20:29;;;;;;;13.75;9.05;;;;;;;;;;4676923;30;20555;-82
2022/04/25 09:22:58;;;;;;;9.50;7.38;;;;;;;;;;4688758;30;20060;-85
2022/04/25 09:25:28;;;;;;;11.00;8.10;;;;;;;;;;4675987;30;20867;-82
2022/04/25 09:28:15;;;;;;;8.52;7.53;;;;;;;;;;4697348;30;20073;-85
2022/04/25 09:30:59;;;;;;;8.10;7.00;;;;;;;;;;4685151;30;20061;-84
2022/04/25 09:33:27;;;;;;;9.07;6.57;;;;;;;;;;4677565;30;20064;-86
2022/04/25 09:35:56;;;;;;;14.93;7.18;;;;;;;;;;4683497;30;20257;-81
2022/04/25 09:38:35;;;;;;;10.93;7.97;;;;;;;;;;4710064;30;20049;-84
2022/04/25 09:41:06;;;;;;;10.07;8.07;;;;;;;;;;4698669;30;20053;-80
2022/04/25 09:43:35;;;;;;;9.02;7.30;;;;;;;;;;4694793;30;20057;-84
2022/04/25 09:46:07;;;;;;;13.25;8.85;;;;;;;;;;4672982;30;20385;-80
2022/04/25 09:48:36;;;;;;;8.70;6.63;;;;;;;;;;4700911;30;20056;-82
2022/04/25 09:51:09;;;;;;;10.50;8.27;;;;;;;;;;4709247;30;20064;-86
2022/04/25 09:53:42;;;;;;;13.23;8.40;;;;;;;;;;4699837;30;20059;-82
2022/04/25 09:56:11;;;;;;;10.13;7.40;;;;;;;;;;4681192;30;20053;-85
2022/04/25 09:58:40;;;;;;;12.95;10.20;;;;;;;;;;4694280;30;20052;-84
2022/04/25 10:01:13;;;;;;;9.48;7.82;;;;;;;;;;4680652;30;20057;-81
2022/04/25 10:03:44;;;;;;;14.82;8.45;;;;;;;;;;4697923;30;20567;-86
2022/04/25 10:06:21;;;;;;;9.90;8.23;;;;;;;;;;4681897;30;20053;-85
2022/04/25 10:08:50;;;;;;;9.35;7.35;;;;;;;;;;4713930;30;20057;-85
2022/04/25 10:11:19;;;;;;;12.27;9.85;;;;;;;;;;4716501;30;20045;-83
2022/04/25 10:13:48;;;;;;;9.35;8.35;;;;;;;;;;4696188;30;20049;-84
2022/04/25 10:16:22;;;;;;;9.75;8.85;;;;;;;;;;4685319;30;20399;-84
2022/04/25 10:18:51;;;;;;;14.18;9.30;;;;;;;;;;4708571;30;20053;-81
2022/04/25 10:21:19;;;;;;;9.98;8.95;;;;;;;;;;4708577;30;20057;-84
2022/04/25 10:23:48;;;;;;;13.27;9.45;;;;;;;;;;4695340;30;20415;-85
2022/04/25 10:26:19;;;;;;;9.30;6.90;;;;;;;;;;4710587;30;20045;-86
2022/04/25 10:28:54;;;;;;;11.38;8.63;;;;;;;;;;4709043;30;20068;-82
2022/04/25 10:31:30;;;;;;;11.90;8.45;;;;;;;;;;4705931;30;20052;-84
2022/04/25 10:34:02;;;;;;;9.93;8.02;;;;;;;;;;4699049;30;20492;-84
2022/04/25 10:36:40;;;;;;;13.10;9.57;;;;;;;;;;4696640;30;20064;-83
2022/04/25 10:39:12;;;;;;;9.63;7.03;;;;;;;;;;4695330;30;20056;-83
2022/04/25 10:44:28;;;;;;;5.90;5.30;;;;;;;;;;4699286;30;20072;-85
2022/04/25 10:47:05;;;;;;;7.55;4.95;;;;;;;;;;4708597;30;20072;-83
2022/04/25 10:49:34;;;;;;;8.98;7.25;;;;;;;;;;4712746;30;20052;-82
2022/04/25 10:52:09;;;;;;;7.75;6.45;;;;;;;;;;4714212;30;20516;-84
2022/04/25 10:54:48;;;;;;;9.13;7.35;;;;;;;;;;4713901;30;20057;-85
2022/04/25 10:57:16;;;;;;;10.35;8.18;;;;;;;;;;4698476;30;20064;-84
2022/04/25 10:59:45;;;;;;;7.15;6.40;;;;;;;;;;4710305;30;20057;-83
2022/04/25 11:02:23;;;;;;;9.80;7.25;;;;;;;;;;4703326;30;20064;-80
2022/04/25 11:05:10;;;;;;;12.52;9.43;;;;;;;;;;4693522;30;20078;-84
2022/04/25 11:07:45;;;;;;;10.60;9.45;;;;;;;;;;4695546;30;20504;-81
2022/04/25 11:10:37;;;;;;;10.18;8.50;;;;;;;;;;4694739;30;20049;-85
2022/04/25 11:13:07;;;;;;;11.63;8.13;;;;;;;;;;4706376;30;20061;-85
2022/04/25 11:15:42;;;;;;;8.73;7.63;;;;;;;;;;4693359;30;20549;-82
2022/04/25 11:21:04;;;;;;;9.05;7.43;;;;;;;;;;4683669;30;20072;-83
2022/04/25 11:23:36;;;;;;;10.05;7.47;;;;;;;;;;4683842;30;20056;-84
2022/04/25 11:26:11;;;;;;;9.57;6.70;;;;;;;;;;4697211;30;20048;-84
2022/04/25 11:29:01;;;;;;;7.95;7.20;;;;;;;;;;4697856;30;20417;-84
2022/04/25 11:31:30;;;;;;;9.40;7.68;;;;;;;;;;4700752;30;20052;-85
2022/04/25 11:34:01;;;;;;;7.43;6.43;;;;;;;;;;4680581;30;20049;-82
2022/04/25 11:36:30;;;;;;;8.25;7.45;;;;;;;;;;4713071;30;20486;-84
2022/04/25 11:41:52;;;;;;;8.60;7.50;;;;;;;;;;4703762;30;20056;-82
2022/04/25 11:44:23;;;;;;;9.18;6.97;;;;;;;;;;4697491;30;20057;-85
2022/04/25 11:46:53;;;;;;;9.68;8.55;;;;;;;;;;4697003;30;20068;-83
2022/04/25 11:49:29;;;;;;;9.30;8.40;;;;;;;;;;4697086;30;20052;-81
2022/04/25 11:52:01;;;;;;;11.50;9.63;;;;;;;;;;4683016;30;20551;-81
2022/04/25 11:54:33;;;;;;;10.63;8.10;;;;;;;;;;4700417;30;20526;-82
2022/04/25 11:57:03;;;;;;;10.63;8.35;;;;;;;;;;4712404;30;20057;-84
2022/04/25 11:59:31;;;;;;;8.65;7.75;;;;;;;;;;4696627;30;20064;-83
2022/04/25 12:02:00;;;;;;;12.85;8.98;;;;;;;;;;4695336;30;20068;-82
2022/04/25 12:04:30;;;;;;;9.70;8.25;;;;;;;;;;4694295;30;20065;-79
2022/04/25 12:06:59;;;;;;;11.68;8.05;;;;;;;;;;4695090;30;20061;-84
2022/04/25 12:17:54;;;;;;;11.48;8.60;;;;;;;;;;4695267;30;20060;-84
2022/04/25 12:20:32;;;;;;;9.60;8.63;;;;;;;;;;4708008;30;20045;-82
2022/04/25 12:23:00;;;;;;;8.70;7.43;;;;;;;;;;4704584;30;20060;-82
2022/04/25 12:25:29;;;;;;;9.93;8.70;;;;;;;;;;4689215;30;20054;-81
2022/04/25 12:28:04;;;;;;;10.90;9.82;;;;;;;;;;4711640;30;20068;-83
2022/04/25 12:30:52;;;;;;;11.60;7.57;;;;;;;;;;4696102;30;20053;-83
2022/04/25 12:33:22;;;;;;;11.20;10.00;;;;;;;;;;4656268;30;20065;-81
2022/04/25 12:35:51;;;;;;;9.25;7.00;;;;;;;;;;4694789;30;20054;-84
2022/04/25 12:38:39;;;;;;;11.93;8.73;;;;;;;;;;4678604;30;20061;-82
2022/04/25 12:41:08;;;;;;;8.50;6.15;;;;;;;;;;4695384;30;20074;-85
2022/04/25 12:43:37;;;;;;;9.68;7.30;;;;;;;;;;4704151;30;20476;-86
2022/04/25 12:46:07;;;;;;;9.15;7.38;;;;;;;;;;4695312;30;20520;-83
2022/04/25 12:48:54;;;;;;;9.73;7.43;;;;;;;;;;4710918;30;20052;-84
2022/04/25 12:51:26;;;;;;;10.65;9.30;;;;;;;;;;4718099;30;20049;-84
2022/04/25 12:53:54;;;;;;;9.00;6.85;;;;;;;;;;4693474;30;20065;-85
2022/04/25 12:56:33;;;;;;;9.15;8.23;;;;;;;;;;4704121;30;20086;-86
2022/04/25 12:59:02;;;;;;;9.23;7.97;;;;;;;;;;4710616;30;20527;-86
2022/04/25 13:01:35;;;;;;;10.63;8.68;;;;;;;;;;4681182;30;20061;-84
2022/04/25 13:04:06;;;;;;;7.63;6.18;;;;;;;;;;4711967;30;20057;-86
2022/04/25 13:06:35;;;;;;;;;;;;;;;;;;4673463;30;20523;-86
2022/04/25 13:09:04;;;;;;;7.00;5.68;;;;;;;;;;4684388;30;19938;-85
2022/04/25 13:11:51;;;;;;;14.98;7.85;;;;;;;;;;4664878;30;20057;-84
2022/04/25 13:14:22;;;;;;;9.60;7.90;;;;;;;;;;4664246;30;20060;-85
2022/04/25 13:16:55;;;;;;;6.68;6.03;;;;;;;;;;4693476;30;20099;-85
2022/04/25 13:19:23;;;;;;;10.13;7.63;;;;;;;;;;4705895;30;20051;-84
2022/04/25 13:21:52;;;;;;;9.20;7.88;;;;;;;;;;4706656;30;20056;-85
2022/04/25 13:24:19;;;;;;;10.20;7.50;;;;;;;;;;4681292;30;20061;-86
2022/04/25 13:26:48;;;;;;;9.10;7.68;;;;;;;;;;4705742;30;20049;-86
2022/04/25 13:29:17;;;;;;;9.80;7.07;;;;;;;;;;4681771;30;20065;-84
2022/04/25 13:31:48;;;;;;;9.23;7.45;;;;;;;;;;4711024;30;20053;-83
2022/04/25 13:34:22;;;;;;;9.68;7.40;;;;;;;;;;4687267;30;20056;-86
2022/04/25 13:37:04;;;;;;;9.80;6.70;;;;;;;;;;4678535;30;20065;-84
2022/04/25 13:39:35;;;;;;;8.77;7.93;;;;;;;;;;4678239;30;20831;-86
2022/04/25 13:42:09;;;;;;;11.13;8.25;;;;;;;;;;4688727;30;20066;-87
2022/04/25 13:44:41;;;;;;;8.60;7.80;;;;;;;;;;4710365;30;20068;-83
2022/04/25 13:47:11;;;;;;;12.27;7.85;;;;;;;;;;4710601;30;20072;-85
2022/04/25 13:49:43;;;;;;;8.05;6.53;;;;;;;;;;4711329;30;20057;-86
2022/04/25 13:52:12;;;;;;;11.48;8.10;;;;;;;;;;4711708;30;20060;-86
2022/04/25 13:54:42;;;;;;;9.60;7.75;;;;;;;;;;4698177;30;20053;-86
2022/04/25 13:57:11;;;;;;;10.13;7.85;;;;;;;;;;4692817;30;20057;-84
2022/04/25 13:59:45;;;;;;;7.32;6.60;;;;;;;;;;4706750;30;20513;-86
2022/04/25 14:05:04;;;;;;;11.35;8.65;;;;;;;;;;4689987;30;20061;-85
2022/04/25 14:07:34;;;;;;;10.93;9.00;;;;;;;;;;4678396;30;20501;-83
2022/04/25 14:10:04;;;;;;;10.73;9.20;;;;;;;;;;4699655;30;20041;-84
2022/04/25 14:12:32;;;;;;;6.63;5.93;;;;;;;;;;4696281;30;20516;-85
2022/04/25 14:15:00;;;;;;;10.25;7.20;;;;;;;;;;4684532;30;20065;-84
2022/04/25 14:17:29;;;;;;;11.10;9.07;;;;;;;;;;4680026;30;20523;-85
2022/04/25 14:19:57;;;;;;;10.65;7.93;;;;;;;;;;4667735;30;20057;-84
2022/04/25 14:22:26;;;;;;;9.70;8.18;;;;;;;;;;4696873;30;20053;-84
2022/04/25 14:24:54;;;;;;;8.80;7.80;;;;;;;;;;4692767;30;20057;-82
2022/04/25 14:27:22;;;;;;;9.20;8.30;;;;;;;;;;4696996;30;20061;-82
2022/04/25 14:29:50;;;;;;;10.73;7.55;;;;;;;;;;4698831;30;20060;-82
2022/04/25 14:32:18;;;;;;;10.82;9.23;;;;;;;;;;4698255;30;20532;-84
2022/04/25 14:34:46;;;;;;;9.32;8.25;;;;;;;;;;4691313;30;20072;-83
2022/04/25 14:37:14;;;;;;;8.75;7.85;;;;;;;;;;4683616;30;20066;-84
2022/04/25 14:39:42;;;;;;;10.32;7.93;;;;;;;;;;4684669;30;20508;-83
2022/04/25 14:42:10;;;;;;;9.73;6.22;;;;;;;;;;4682912;30;20064;-83
2022/04/25 14:44:38;;;;;;;6.18;5.20;;;;;;;;;;4688105;30;20068;-85
2022/04/25 14:47:07;;;;;;;8.27;7.53;;;;;;;;;;4683643;30;20067;-88
2022/04/25 14:55:10;;;;;;;8.90;6.75;;;;;;;;;;4728470;30;20055;-87
2022/04/25 14:57:38;;;;;;;11.77;7.95;;;;;;;;;;4727236;30;20396;-88
2022/04/25 15:00:06;;;;;;;8.30;6.43;;;;;;;;;;4703613;30;20465;-87
2022/04/25 15:02:34;;;;;;;7.43;6.45;;;;;;;;;;4701506;30;20052;-86
2022/04/25 15:05:03;;;;;;;11.57;6.65;;;;;;;;;;4723610;30;20065;-87
2022/04/25 15:07:31;;;;;;;7.88;7.00;;;;;;;;;;4700833;30;20057;-88
2022/04/25 15:10:03;;;;;;;8.18;6.63;;;;;;;;;;4700119;30;20164;-88
2022/04/25 15:12:34;;;;;;;10.18;7.97;;;;;;;;;;4699697;30;20056;-90
2022/04/25 15:15:05;;;;;;;7.72;6.28;;;;;;;;;;4683504;30;20054;-90
2022/04/25 15:18:05;;;;;;;7.65;6.90;;;;;;;;;;4683285;30;20128;-90
2022/04/25 15:20:33;;;;;;;7.13;5.32;;;;;;;;;;4695813;30;20408;-88
2022/04/25 15:23:05;;;;;;;6.82;5.93;;;;;;;;;;4682734;30;20060;-88
2022/04/25 15:25:37;;;;;;;8.23;6.20;;;;;;;;;;4683049;30;20077;-86
2022/04/25 15:28:25;;;;;;;8.68;6.53;;;;;;;;;;4684089;30;20547;-86
2022/04/25 15:30:53;;;;;;;8.85;6.40;;;;;;;;;;4696534;30;20053;-88
2022/04/25 15:33:22;;;;;;;7.57;6.80;;;;;;;;;;4697962;30;20049;-87
2022/04/25 15:35:51;;;;;;;9.43;6.40;;;;;;;;;;4669235;30;20057;-90
2022/04/25 15:38:22;;;;;;;10.30;7.00;;;;;;;;;;4680785;30;20055;-88
2022/04/25 15:40:50;;;;;;;8.10;6.55;;;;;;;;;;4666651;30;20504;-87
2022/04/25 15:43:19;;;;;;;8.02;6.38;;;;;;;;;;4666168;30;20073;-87
2022/04/25 15:45:47;;;;;;;7.60;4.40;;;;;;;;;;4681971;30;20256;-88
2022/04/25 15:48:15;;;;;;;7.70;4.80;;;;;;;;;;4688791;30;20061;-88
2022/04/25 15:50:51;;;;;;;7.22;5.75;;;;;;;;;;4680159;30;20531;-89
2022/04/25 15:53:20;;;;;;;4.80;4.30;;;;;;;;;;4712422;30;20080;-75
2022/04/25 15:58:34;;;;;;;5.82;5.25;;;;;;;;;;4714429;30;20057;-74
2022/04/25 16:01:03;;;;;;;5.30;4.60;;;;;;;;;;4708887;30;20050;-86
2022/04/25 16:03:31;;;;;;;7.00;5.55;;;;;;;;;;4682440;30;20049;-85
2022/04/25 16:06:00;;;;;;;5.60;5.07;;;;;;;;;;4680404;30;20073;-75